createdAt,value
2023-02-16T00:00:30.038Z,93748.94
2023-02-16T00:03:15.238Z,93739.69
2023-02-16T00:05:59.610Z,93736.31
2023-02-16T00:08:43.057Z,93735.22
2023-02-16T00:11:47.643Z,93733.06
2023-02-16T00:14:30.409Z,93729.75
2023-02-16T00:17:13.590Z,93731.97
2023-02-16T00:19:56.367Z,93732.09
2023-02-16T00:22:40.476Z,93734.56
2023-02-16T00:25:23.251Z,93736.72
2023-02-16T00:28:12.206Z,93741.38
2023-02-16T00:30:55.138Z,93739.38
2023-02-16T00:33:38.038Z,93742.59
2023-02-16T00:36:20.915Z,93739.84
2023-02-16T00:39:05.038Z,93737.03
2023-02-16T00:41:52.017Z,93735.81
2023-02-16T00:44:37.879Z,93729.59
2023-02-16T00:47:26.346Z,93725.84
2023-02-16T00:50:17.109Z,93727.44
2023-02-16T00:53:03.281Z,93719.75
2023-02-16T00:55:47.591Z,93726.53
2023-02-16T00:58:31.835Z,93723.16
2023-02-16T01:01:16.823Z,93722.41
2023-02-16T01:04:06.793Z,93717.44
2023-02-16T01:07:07.419Z,93719.09
2023-02-16T01:10:07.854Z,93721.66
2023-02-16T01:12:52.036Z,93715.78
2023-02-16T01:15:34.983Z,93718.84
2023-02-16T01:18:19.464Z,93718.84
2023-02-16T01:21:02.554Z,93718.69
2023-02-16T01:23:46.388Z,93714.66
2023-02-16T01:26:30.625Z,93719.44
2023-02-16T01:29:17.715Z,93716.09
2023-02-16T01:32:00.605Z,93719.88
2023-02-16T01:34:43.533Z,93709.97
2023-02-16T01:37:26.343Z,93711.19
2023-02-16T01:40:21.669Z,93711.03
2023-02-16T01:43:10.582Z,93704.75
2023-02-16T01:46:00.492Z,93701.25
2023-02-16T01:48:43.381Z,93696.34
2023-02-16T01:51:32.360Z,93685.69
2023-02-16T01:54:28.386Z,93684.50
2023-02-16T01:57:24.196Z,93680.94
2023-02-16T02:00:14.242Z,93679.56
2023-02-16T02:03:21.540Z,93674.28
2023-02-16T02:06:03.549Z,93671.81
2023-02-16T02:08:52.445Z,93665.03
2023-02-16T02:11:39.726Z,93671.75
2023-02-16T02:14:28.068Z,93666.16
2023-02-16T02:17:14.480Z,93665.25
2023-02-16T02:20:06.842Z,93665.13
2023-02-16T02:23:33.045Z,93664.88
2023-02-16T02:26:57.073Z,93663.84
2023-02-16T02:30:06.814Z,93659.00
2023-02-16T02:33:12.726Z,93650.50
2023-02-16T02:36:09.938Z,93651.75
2023-02-16T02:39:04.380Z,93655.47
2023-02-16T02:42:07.323Z,93652.69
2023-02-16T02:45:05.503Z,93646.91
2023-02-16T02:47:49.332Z,93651.03
2023-02-16T02:50:40.272Z,93649.88
2023-02-16T02:53:24.440Z,93646.97
2023-02-16T02:56:27.415Z,93650.00
2023-02-16T02:59:29.830Z,93646.81
2023-02-16T03:02:14.082Z,93649.69
2023-02-16T03:04:58.798Z,93646.81
2023-02-16T03:07:50.121Z,93647.91
2023-02-16T03:10:54.512Z,93646.84
2023-02-16T03:13:40.669Z,93650.94
2023-02-16T03:16:28.985Z,93650.53
2023-02-16T03:19:32.262Z,93649.47
2023-02-16T03:22:32.579Z,93653.16
2023-02-16T03:25:33.821Z,93642.50
2023-02-16T03:28:37.150Z,93644.97
2023-02-16T03:31:23.494Z,93636.59
2023-02-16T03:34:08.927Z,93643.06
2023-02-16T03:36:58.436Z,93642.06
2023-02-16T03:39:55.222Z,93642.91
2023-02-16T03:42:38.031Z,93648.53
2023-02-16T03:45:22.262Z,93645.50
2023-02-16T03:48:05.605Z,93638.34
2023-02-16T03:50:49.897Z,93640.88
2023-02-16T03:53:32.841Z,93639.88
2023-02-16T03:56:15.639Z,93637.53
2023-02-16T03:58:58.579Z,93640.88
2023-02-16T04:01:41.470Z,93639.81
2023-02-16T04:04:24.369Z,93642.09
2023-02-16T04:07:08.591Z,93643.16
2023-02-16T04:09:51.408Z,93639.16
2023-02-16T04:12:39.060Z,93644.31
2023-02-16T04:15:24.584Z,93630.91
2023-02-16T04:18:07.437Z,93637.53
2023-02-16T04:20:50.348Z,93637.53
2023-02-16T04:23:34.540Z,93639.34
2023-02-16T04:26:17.376Z,93640.25
2023-02-16T04:29:00.430Z,93649.75
2023-02-16T04:31:43.334Z,93647.41
2023-02-16T04:34:26.319Z,93643.38
2023-02-16T04:37:09.160Z,93637.72
2023-02-16T04:39:53.335Z,93643.06
2023-02-16T04:42:36.169Z,93647.31
2023-02-16T04:45:19.117Z,93640.53
2023-02-16T04:48:01.937Z,93640.53
2023-02-16T04:50:44.779Z,93645.03
2023-02-16T04:53:27.572Z,93644.22
2023-02-16T04:56:12.706Z,93637.50
2023-02-16T04:58:56.632Z,93647.81
2023-02-16T05:01:40.349Z,93647.09
2023-02-16T05:04:23.264Z,93641.44
2023-02-16T05:07:06.121Z,93639.81
2023-02-16T05:09:48.915Z,93638.09
2023-02-16T05:12:50.541Z,93638.19
2023-02-16T05:15:33.665Z,93639.09
2023-02-16T05:18:16.486Z,93640.88
2023-02-16T05:21:16.691Z,93646.75
2023-02-16T05:23:59.821Z,93639.97
2023-02-16T05:26:42.650Z,93641.84
2023-02-16T05:29:26.857Z,93646.84
2023-02-16T05:32:10.060Z,93640.88
2023-02-16T05:34:52.873Z,93645.84
2023-02-16T05:37:35.703Z,93645.06
2023-02-16T05:40:18.649Z,93642.41
2023-02-16T05:43:01.501Z,93651.78
2023-02-16T05:45:45.701Z,93649.44
2023-02-16T05:48:28.515Z,93654.53
2023-02-16T05:51:11.322Z,93653.56
2023-02-16T05:53:54.334Z,93659.19
2023-02-16T05:56:37.496Z,93656.75
2023-02-16T05:59:20.872Z,93659.44
2023-02-16T06:02:05.174Z,93663.22
2023-02-16T06:04:47.991Z,93662.66
2023-02-16T06:07:30.829Z,93663.63
2023-02-16T06:10:13.611Z,93662.75
2023-02-16T06:12:56.417Z,93671.25
2023-02-16T06:15:39.503Z,93670.41
2023-02-16T06:18:24.322Z,93673.19
2023-02-16T06:21:07.131Z,93670.75
2023-02-16T06:23:50.392Z,93677.47
2023-02-16T06:26:33.322Z,93678.19
2023-02-16T06:29:16.142Z,93682.34
2023-02-16T06:31:59.156Z,93680.72
2023-02-16T06:34:43.350Z,93683.25
2023-02-16T06:37:26.149Z,93680.72
2023-02-16T06:40:11.018Z,93683.19
2023-02-16T06:42:53.880Z,93682.34
2023-02-16T06:45:36.705Z,93686.78
2023-02-16T06:48:19.574Z,93696.94
2023-02-16T06:51:03.908Z,93699.47
2023-02-16T06:53:46.878Z,93692.59
2023-02-16T06:56:29.662Z,93699.31
2023-02-16T06:59:13.177Z,93696.78
2023-02-16T07:01:55.987Z,93695.88
2023-02-16T07:04:38.834Z,93694.81
2023-02-16T07:07:24.027Z,93698.66
2023-02-16T07:10:08.456Z,93695.88
2023-02-16T07:12:51.325Z,93704.31
2023-02-16T07:15:34.133Z,93701.03
2023-02-16T07:18:16.957Z,93705.22
2023-02-16T07:21:00.316Z,93701.03
2023-02-16T07:23:45.392Z,93707.66
2023-02-16T07:26:28.326Z,93712.75
2023-02-16T07:29:11.143Z,93716.00
2023-02-16T07:31:56.540Z,93720.69
2023-02-16T07:34:39.892Z,93712.09
2023-02-16T07:37:22.668Z,93708.41
2023-02-16T07:40:08.326Z,93712.59
2023-02-16T07:42:51.163Z,93718.66
2023-02-16T07:45:34.226Z,93712.28
2023-02-16T07:48:18.477Z,93715.28
2023-02-16T07:51:01.819Z,93706.63
2023-02-16T07:53:44.689Z,93714.53
2023-02-16T07:56:30.662Z,93708.56
2023-02-16T07:59:16.313Z,93706.50
2023-02-16T08:01:59.240Z,93716.50
2023-02-16T08:04:42.363Z,93707.00
2023-02-16T08:07:25.262Z,93714.44
2023-02-16T08:10:09.543Z,93712.31
2023-02-16T08:12:53.706Z,93718.34
2023-02-16T08:15:37.458Z,93710.69
2023-02-16T08:18:20.250Z,93719.16
2023-02-16T08:21:13.788Z,93712.69
2023-02-16T08:23:59.601Z,93721.50
2023-02-16T08:26:44.780Z,93715.38
2023-02-16T08:29:28.938Z,93720.16
2023-02-16T08:32:13.055Z,93729.69
2023-02-16T08:34:57.380Z,93726.06
2023-02-16T08:37:41.441Z,93730.25
2023-02-16T08:40:24.941Z,93726.81
2023-02-16T08:43:07.711Z,93734.19
2023-02-16T08:45:52.008Z,93739.44
2023-02-16T08:48:35.582Z,93742.06
2023-02-16T08:51:20.891Z,93741.19
2023-02-16T08:54:07.131Z,93741.91
2023-02-16T08:56:50.806Z,93730.44
2023-02-16T08:59:34.975Z,93736.13
2023-02-16T09:02:19.322Z,93736.44
2023-02-16T09:05:02.173Z,93742.31
2023-02-16T09:07:45.140Z,93739.41
2023-02-16T09:10:28.014Z,93743.84
2023-02-16T09:13:14.823Z,93734.59
2023-02-16T09:16:04.347Z,93734.31
2023-02-16T09:18:49.218Z,93733.28
2023-02-16T09:21:33.357Z,93744.81
2023-02-16T09:24:16.453Z,93744.63
2023-02-16T09:26:59.444Z,93744.09
2023-02-16T09:29:43.853Z,93752.59
2023-02-16T09:32:29.445Z,93748.41
2023-02-16T09:35:13.574Z,93746.75
2023-02-16T09:37:57.740Z,93752.22
2023-02-16T09:40:40.602Z,93756.72
2023-02-16T09:43:35.709Z,93752.03
2023-02-16T09:46:22.683Z,93764.97
2023-02-16T09:49:06.488Z,93766.84
2023-02-16T09:51:55.781Z,93768.91
2023-02-16T09:54:43.852Z,93761.31
2023-02-16T09:57:41.288Z,93760.13
2023-02-16T10:00:32.432Z,93755.28
2023-02-16T10:03:39.478Z,93744.41
2023-02-16T10:06:44.186Z,93743.00
2023-02-16T10:09:30.070Z,93748.94
2023-02-16T10:12:19.449Z,93739.69
2023-02-16T10:15:08.229Z,93743.91
2023-02-16T10:17:56.703Z,93744.59
2023-02-16T10:20:43.928Z,93743.91
2023-02-16T10:23:41.562Z,93736.66
2023-02-16T10:26:33.248Z,93735.22
2023-02-16T10:29:18.016Z,93739.50
2023-02-16T10:32:12.139Z,93740.63
2023-02-16T10:35:10.873Z,93734.59
2023-02-16T10:38:02.339Z,93736.25
2023-02-16T10:40:55.096Z,93730.75
2023-02-16T10:43:46.582Z,93723.47
2023-02-16T10:46:33.461Z,93732.38
2023-02-16T10:49:18.298Z,93725.13
2023-02-16T10:52:03.756Z,93717.94
2023-02-16T10:54:47.006Z,93716.94
2023-02-16T10:57:32.884Z,93716.69
2023-02-16T11:00:23.029Z,93709.47
2023-02-16T11:03:12.956Z,93716.81
2023-02-16T11:05:56.099Z,93716.81
2023-02-16T11:08:49.981Z,93715.38
2023-02-16T11:11:38.122Z,93720.72
2023-02-16T11:14:24.209Z,93719.19
2023-02-16T11:17:12.594Z,93718.97
2023-02-16T11:20:01.425Z,93716.53
2023-02-16T11:22:44.811Z,93706.66
2023-02-16T11:25:28.212Z,93712.47
2023-02-16T11:28:12.402Z,93711.75
2023-02-16T11:31:01.604Z,93718.38
2023-02-16T11:33:57.410Z,93715.31
2023-02-16T11:36:43.220Z,93714.38
2023-02-16T11:39:30.784Z,93719.69
2023-02-16T11:42:24.893Z,93708.56
2023-02-16T11:45:10.217Z,93710.53
2023-02-16T11:47:55.844Z,93714.31
2023-02-16T11:50:41.989Z,93710.03
2023-02-16T11:53:27.029Z,93711.03
2023-02-16T11:56:29.262Z,93711.03
2023-02-16T11:59:19.171Z,93704.50
2023-02-16T12:02:28.940Z,93701.53
2023-02-16T12:05:25.134Z,93698.47
2023-02-16T12:08:28.931Z,93699.69
2023-02-16T12:11:25.482Z,93699.91
2023-02-16T12:14:24.957Z,93694.69
2023-02-16T12:17:19.377Z,93688.34
2023-02-16T12:20:14.936Z,93683.38
2023-02-16T12:23:05.622Z,93687.06
2023-02-16T12:26:02.442Z,93683.78
2023-02-16T12:28:55.455Z,93681.44
2023-02-16T12:31:55.887Z,93674.59
2023-02-16T12:34:50.998Z,93671.94
2023-02-16T12:37:41.581Z,93670.00
2023-02-16T12:40:38.433Z,93669.06
2023-02-16T12:43:33.766Z,93671.31
2023-02-16T12:46:23.979Z,93660.50
2023-02-16T12:49:14.209Z,93655.06
2023-02-16T12:52:05.320Z,93662.53
2023-02-16T12:54:52.636Z,93650.47
2023-02-16T12:57:36.829Z,93654.75
2023-02-16T13:00:27.055Z,93653.75
2023-02-16T13:03:25.044Z,93648.81
2023-02-16T13:06:18.976Z,93644.13
2023-02-16T13:09:12.490Z,93642.16
2023-02-16T13:12:02.324Z,93639.41
2023-02-16T13:14:50.052Z,93635.59
2023-02-16T13:17:40.257Z,93635.97
2023-02-16T13:20:24.930Z,93634.72
2023-02-16T13:23:28.411Z,93633.81
2023-02-16T13:26:50.562Z,93626.84
2023-02-16T13:30:06.056Z,93627.34
2023-02-16T13:33:04.272Z,93621.28
2023-02-16T13:36:19.577Z,93623.03
2023-02-16T13:39:21.505Z,93609.34
2023-02-16T13:42:32.932Z,93620.16
2023-02-16T13:45:19.342Z,93618.53
2023-02-16T13:48:03.551Z,93621.78
2023-02-16T13:50:47.838Z,93616.09
2023-02-16T13:53:36.224Z,93607.72
2023-02-16T13:56:23.849Z,93604.13
2023-02-16T13:59:59.338Z,93610.97
2023-02-16T14:03:04.655Z,93612.03
2023-02-16T14:05:48.276Z,93611.19
2023-02-16T14:08:32.163Z,93613.75
2023-02-16T14:11:14.985Z,93617.34
2023-02-16T14:13:57.838Z,93623.47
2023-02-16T14:16:40.637Z,93619.53
2023-02-16T14:19:27.065Z,93629.13
2023-02-16T14:22:12.658Z,93626.09
2023-02-16T14:24:58.733Z,93625.38
2023-02-16T14:27:44.958Z,93627.31
2023-02-16T14:30:32.205Z,93627.75
2023-02-16T14:33:23.985Z,93625.72
2023-02-16T14:36:15.904Z,93618.28
2023-02-16T14:39:00.316Z,93623.50
2023-02-16T14:41:43.497Z,93622.28
2023-02-16T14:44:41.519Z,93623.41
2023-02-16T14:47:36.379Z,93621.06
2023-02-16T14:50:32.824Z,93626.41
2023-02-16T14:53:37.323Z,93620.66
2023-02-16T14:56:35.463Z,93618.44
2023-02-16T14:59:31.576Z,93627.94
2023-02-16T15:02:31.736Z,93622.22
2023-02-16T15:05:18.858Z,93623.34
2023-02-16T15:08:11.279Z,93623.84
2023-02-16T15:10:58.468Z,93625.81
2023-02-16T15:13:42.866Z,93623.38
2023-02-16T15:16:25.820Z,93618.34
2023-02-16T15:19:13.345Z,93616.72
2023-02-16T15:22:09.532Z,93616.84
2023-02-16T15:24:57.390Z,93616.13
2023-02-16T15:27:42.303Z,93614.69
2023-02-16T15:30:26.376Z,93622.16
2023-02-16T15:33:16.072Z,93616.94
2023-02-16T15:36:00.843Z,93611.53
2023-02-16T15:38:55.469Z,93624.28
2023-02-16T15:41:40.407Z,93615.00
2023-02-16T15:44:34.295Z,93620.41
2023-02-16T15:47:22.555Z,93615.53
2023-02-16T15:50:14.324Z,93615.09
2023-02-16T15:52:57.130Z,93614.78
2023-02-16T15:55:44.589Z,93612.34
2023-02-16T15:58:27.889Z,93614.88
2023-02-16T16:01:13.970Z,93617.53
2023-02-16T16:03:58.643Z,93623.97
2023-02-16T16:06:41.937Z,93623.06
2023-02-16T16:09:27.680Z,93624.59
2023-02-16T16:12:14.353Z,93618.56
2023-02-16T16:14:59.597Z,93619.47
2023-02-16T16:17:43.715Z,93625.66
2023-02-16T16:20:35.098Z,93626.44
2023-02-16T16:23:27.003Z,93634.56
2023-02-16T16:26:21.013Z,93631.69
2023-02-16T16:29:04.652Z,93642.28
2023-02-16T16:31:54.057Z,93635.00
2023-02-16T16:34:40.683Z,93645.56
2023-02-16T16:37:28.482Z,93639.13
2023-02-16T16:40:23.842Z,93649.59
2023-02-16T16:43:17.389Z,93653.22
2023-02-16T16:46:14.322Z,93653.72
2023-02-16T16:49:03.346Z,93649.72
2023-02-16T16:51:53.555Z,93655.09
2023-02-16T16:54:36.547Z,93650.28
2023-02-16T16:57:20.269Z,93655.38
2023-02-16T17:00:03.399Z,93649.47
2023-02-16T17:02:47.190Z,93646.09
2023-02-16T17:05:30.125Z,93651.72
2023-02-16T17:08:14.223Z,93657.56
2023-02-16T17:10:57.272Z,93654.47
2023-02-16T17:13:40.338Z,93656.63
2023-02-16T17:16:27.033Z,93652.81
2023-02-16T17:19:12.925Z,93657.91
2023-02-16T17:21:55.795Z,93654.81
2023-02-16T17:24:40.361Z,93659.56
2023-02-16T17:27:23.086Z,93661.94
2023-02-16T17:30:06.931Z,93662.84
2023-02-16T17:32:49.765Z,93667.19
2023-02-16T17:35:33.001Z,93670.66
2023-02-16T17:38:20.042Z,93671.56
2023-02-16T17:41:04.293Z,93669.81
2023-02-16T17:43:47.078Z,93669.19
2023-02-16T17:46:31.583Z,93676.19
2023-02-16T17:49:16.152Z,93672.13
2023-02-16T17:51:59.093Z,93673.94
2023-02-16T17:54:41.885Z,93669.81
2023-02-16T17:57:26.218Z,93668.13
2023-02-16T18:00:16.942Z,93664.66
2023-02-16T18:02:59.739Z,93666.31
2023-02-16T18:05:42.773Z,93667.28
2023-02-16T18:08:25.587Z,93668.00
2023-02-16T18:11:08.368Z,93668.84
2023-02-16T18:13:52.544Z,93664.47
2023-02-16T18:16:35.427Z,93673.75
2023-02-16T18:19:19.416Z,93669.56
2023-02-16T18:22:02.392Z,93667.94
2023-02-16T18:24:45.342Z,93674.66
2023-02-16T18:27:29.446Z,93674.72
2023-02-16T18:30:15.427Z,93670.47
2023-02-16T18:32:58.546Z,93674.72
2023-02-16T18:35:41.610Z,93666.28
2023-02-16T18:38:25.113Z,93667.19
2023-02-16T18:41:08.201Z,93662.84
2023-02-16T18:43:50.974Z,93661.38
2023-02-16T18:46:35.107Z,93662.81
2023-02-16T18:49:17.918Z,93656.72
2023-02-16T18:52:00.701Z,93656.19
2023-02-16T18:54:43.523Z,93656.28
2023-02-16T18:57:26.369Z,93662.91
2023-02-16T19:00:11.369Z,93663.84
2023-02-16T19:02:56.922Z,93662.19
2023-02-16T19:05:39.754Z,93662.72
2023-02-16T19:08:22.537Z,93657.34
2023-02-16T19:11:05.771Z,93664.97
2023-02-16T19:13:49.563Z,93667.44
2023-02-16T19:16:32.477Z,93670.44
2023-02-16T19:19:16.638Z,93665.25
2023-02-16T19:21:59.434Z,93671.34
2023-02-16T19:24:42.489Z,93664.72
2023-02-16T19:27:25.298Z,93670.63
2023-02-16T19:30:09.907Z,93669.53
2023-02-16T19:32:52.560Z,93660.16
2023-02-16T19:35:36.689Z,93657.72
2023-02-16T19:38:19.495Z,93649.53
2023-02-16T19:41:02.307Z,93644.53
2023-02-16T19:43:45.827Z,93647.09
2023-02-16T19:46:29.488Z,93647.16
2023-02-16T19:49:15.107Z,93642.06
2023-02-16T19:52:02.334Z,93648.78
2023-02-16T19:54:45.188Z,93648.00
2023-02-16T19:57:28.026Z,93653.88
2023-02-16T20:00:14.109Z,93648.00
2023-02-16T20:02:57.096Z,93651.56
2023-02-16T20:05:40.058Z,93655.00
2023-02-16T20:08:24.246Z,93657.63
2023-02-16T20:11:08.469Z,93646.03
2023-02-16T20:13:52.520Z,93643.66
2023-02-16T20:16:35.922Z,93646.38
2023-02-16T20:19:19.029Z,93643.13
2023-02-16T20:22:01.815Z,93639.66
2023-02-16T20:24:45.994Z,93636.28
2023-02-16T20:27:29.500Z,93641.47
2023-02-16T20:30:17.790Z,93643.22
2023-02-16T20:33:01.025Z,93639.75
2023-02-16T20:35:43.982Z,93642.81
2023-02-16T20:38:26.751Z,93649.19
2023-02-16T20:41:11.017Z,93642.28
2023-02-16T20:43:53.845Z,93648.34
2023-02-16T20:46:37.561Z,93642.47
2023-02-16T20:49:20.351Z,93639.00
2023-02-16T20:52:03.549Z,93643.00
2023-02-16T20:54:46.317Z,93642.63
2023-02-16T20:57:30.501Z,93643.06
2023-02-16T21:00:20.196Z,93637.16
2023-02-16T21:03:03.035Z,93639.72
2023-02-16T21:05:45.877Z,93637.34
2023-02-16T21:08:28.782Z,93644.97
2023-02-16T21:11:11.970Z,93636.53
2023-02-16T21:13:57.644Z,93633.06
2023-02-16T21:16:41.807Z,93629.53
2023-02-16T21:19:24.665Z,93627.78
2023-02-16T21:22:07.519Z,93630.13
2023-02-16T21:24:50.313Z,93625.59
2023-02-16T21:27:33.165Z,93623.78
2023-02-16T21:30:17.586Z,93620.38
2023-02-16T21:33:00.411Z,93617.03
2023-02-16T21:35:43.206Z,93609.59
2023-02-16T21:38:25.998Z,93608.13
2023-02-16T21:41:28.688Z,93620.16
2023-02-16T21:44:13.235Z,93618.50
2023-02-16T21:46:57.646Z,93615.97
2023-02-16T21:49:39.967Z,93616.97
2023-02-16T21:52:22.794Z,93612.19
2023-02-16T21:55:23.593Z,93615.91
2023-02-16T21:58:07.974Z,93609.38
2023-02-16T22:00:52.886Z,93613.00
2023-02-16T22:03:37.439Z,93612.28
2023-02-16T22:06:20.078Z,93603.13
2023-02-16T22:09:06.114Z,93612.56
2023-02-16T22:11:49.385Z,93613.59
2023-02-16T22:14:33.214Z,93607.97
2023-02-16T22:17:16.052Z,93611.50
2023-02-16T22:20:00.178Z,93610.69
2023-02-16T22:22:43.498Z,93598.06
2023-02-16T22:25:26.282Z,93593.06
2023-02-16T22:28:09.738Z,93592.72
2023-02-16T22:30:52.563Z,93602.78
2023-02-16T22:33:36.044Z,93608.06
2023-02-16T22:36:20.220Z,93610.69
2023-02-16T22:39:03.255Z,93608.25
2023-02-16T22:41:46.384Z,93618.44
2023-02-16T22:44:29.144Z,93621.88
2023-02-16T22:47:11.982Z,93614.44
2023-02-16T22:49:54.753Z,93606.34
2023-02-16T22:52:38.894Z,93602.53
2023-02-16T22:55:21.657Z,93606.44
2023-02-16T22:58:04.465Z,93599.69
2023-02-16T23:00:47.981Z,93596.53
2023-02-16T23:03:31.222Z,93584.56
2023-02-16T23:06:15.458Z,93590.47
2023-02-16T23:09:02.513Z,93588.09
2023-02-16T23:11:45.673Z,93595.19
2023-02-16T23:14:29.310Z,93582.19
2023-02-16T23:17:12.172Z,93586.66
2023-02-16T23:19:54.981Z,93586.81
2023-02-16T23:22:37.768Z,93589.38
2023-02-16T23:25:34.342Z,93590.16
2023-02-16T23:28:17.524Z,93604.44
2023-02-16T23:31:00.437Z,93599.34
2023-02-16T23:33:43.498Z,93593.38
2023-02-16T23:36:26.299Z,93588.63
2023-02-16T23:39:11.731Z,93603.25
2023-02-16T23:41:56.752Z,93600.97
2023-02-16T23:44:39.496Z,93602.34
2023-02-16T23:47:22.728Z,93590.47
2023-02-16T23:50:06.433Z,93596.28
2023-02-16T23:52:49.470Z,93607.97
2023-02-16T23:55:32.198Z,93596.97
2023-02-16T23:58:16.350Z,93596.06
